createdAt,value
2022-11-22T00:04:03.447Z,6.41
2022-11-22T00:09:03.662Z,6.38
2022-11-22T00:13:54.070Z,6.38
2022-11-22T00:18:48.056Z,6.36
2022-11-22T00:23:47.137Z,6.37
2022-11-22T00:28:43.234Z,6.37
2022-11-22T00:33:34.054Z,6.34
2022-11-22T00:38:27.013Z,6.33
2022-11-22T00:43:20.420Z,6.29
2022-11-22T00:48:11.296Z,6.25
2022-11-22T00:53:02.265Z,6.24
2022-11-22T00:57:53.479Z,6.18
2022-11-22T01:02:47.438Z,6.11
2022-11-22T01:07:38.312Z,6.09
2022-11-22T01:12:33.386Z,6.04
2022-11-22T01:17:24.750Z,5.99
2022-11-22T01:22:19.762Z,5.94
2022-11-22T01:27:13.665Z,5.90
2022-11-22T01:32:04.240Z,5.87
2022-11-22T01:36:55.060Z,5.80
2022-11-22T01:41:48.769Z,5.75
2022-11-22T01:46:41.430Z,5.71
2022-11-22T01:51:38.925Z,5.64
2022-11-22T01:56:32.338Z,5.60
2022-11-22T02:01:26.009Z,5.57
2022-11-22T02:06:17.112Z,5.54
2022-11-22T02:11:08.335Z,5.51
2022-11-22T02:15:58.843Z,5.46
2022-11-22T02:20:52.318Z,5.38
2022-11-22T02:25:55.327Z,5.39
2022-11-22T02:30:45.928Z,5.39
2022-11-22T02:35:36.798Z,5.34
2022-11-22T02:40:30.468Z,5.31
2022-11-22T02:45:24.351Z,5.30
2022-11-22T02:50:14.688Z,5.24
2022-11-22T02:55:05.730Z,5.23
2022-11-22T02:59:56.533Z,5.19
2022-11-22T03:04:50.761Z,5.19
2022-11-22T03:09:42.696Z,5.18
2022-11-22T03:14:33.493Z,5.16
2022-11-22T03:19:24.682Z,5.13
2022-11-22T03:24:22.353Z,5.10
2022-11-22T03:29:25.241Z,5.08
2022-11-22T03:34:18.177Z,5.05
2022-11-22T03:39:09.001Z,5.02
2022-11-22T03:44:05.360Z,5.00
2022-11-22T03:48:59.829Z,4.90
2022-11-22T03:53:50.644Z,4.77
2022-11-22T03:58:44.263Z,4.80
2022-11-22T04:03:41.429Z,4.74
2022-11-22T04:08:34.956Z,4.68
2022-11-22T04:13:46.490Z,4.62
2022-11-22T04:18:40.334Z,4.55
2022-11-22T04:23:34.196Z,4.50
2022-11-22T04:28:53.696Z,4.50
2022-11-22T04:33:41.109Z,4.48
2022-11-22T04:38:32.411Z,4.42
2022-11-22T04:43:41.079Z,4.36
2022-11-22T04:48:32.547Z,4.32
2022-11-22T04:53:27.095Z,4.23
2022-11-22T04:58:18.158Z,4.30
2022-11-22T05:03:08.742Z,4.32
2022-11-22T05:08:00.311Z,4.36
2022-11-22T05:12:54.505Z,4.39
2022-11-22T05:17:47.862Z,4.41
2022-11-22T05:22:53.666Z,4.46
2022-11-22T05:27:44.858Z,4.45
2022-11-22T05:32:42.892Z,4.43
2022-11-22T05:37:36.759Z,4.41
2022-11-22T05:42:27.137Z,4.41
2022-11-22T05:47:17.714Z,4.41
2022-11-22T05:52:11.972Z,4.40
2022-11-22T05:57:15.065Z,4.37
2022-11-22T06:02:11.085Z,4.33
2022-11-22T06:07:08.400Z,4.28
2022-11-22T06:12:03.826Z,4.27
2022-11-22T06:16:54.601Z,4.30
2022-11-22T06:21:44.766Z,4.32
2022-11-22T06:26:39.211Z,4.38
2022-11-22T06:31:32.940Z,4.40
2022-11-22T06:36:24.071Z,4.39
2022-11-22T06:41:15.476Z,4.40
2022-11-22T06:46:07.314Z,4.41
2022-11-22T06:51:07.486Z,4.43
2022-11-22T06:56:04.106Z,4.48
2022-11-22T07:00:55.181Z,4.52
2022-11-22T07:05:53.743Z,4.57
2022-11-22T07:10:49.407Z,4.60
2022-11-22T07:15:41.317Z,4.67
2022-11-22T07:20:36.584Z,4.70
2022-11-22T07:25:27.238Z,4.73
2022-11-22T07:30:23.946Z,4.79
2022-11-22T07:35:17.835Z,4.84
2022-11-22T07:40:09.043Z,4.86
2022-11-22T07:44:59.669Z,4.88
2022-11-22T07:49:53.177Z,4.89
2022-11-22T07:54:44.503Z,4.94
2022-11-22T07:59:35.845Z,4.97
2022-11-22T08:04:27.109Z,5.00
2022-11-22T08:09:23.006Z,5.02
2022-11-22T08:14:15.677Z,5.01
2022-11-22T08:19:07.682Z,5.01
2022-11-22T08:24:02.467Z,5.05
2022-11-22T08:28:57.100Z,5.09
2022-11-22T08:33:51.499Z,5.13
2022-11-22T08:38:42.372Z,5.17
2022-11-22T08:43:33.319Z,5.24
2022-11-22T08:48:26.860Z,5.26
2022-11-22T08:53:17.191Z,5.30
2022-11-22T08:58:07.800Z,5.33
2022-11-22T09:02:58.384Z,5.34
2022-11-22T09:13:02.317Z,5.38
2022-11-22T09:17:53.732Z,5.42
2022-11-22T09:22:44.056Z,5.44
2022-11-22T09:27:43.147Z,5.47
2022-11-22T09:32:34.126Z,5.50
2022-11-22T09:37:28.094Z,5.52
2022-11-22T09:42:31.011Z,5.55
2022-11-22T09:47:28.697Z,5.57
2022-11-22T09:52:22.436Z,5.58
2022-11-22T09:57:15.468Z,5.58
2022-11-22T10:02:18.147Z,5.60
2022-11-22T10:07:18.705Z,5.63
2022-11-22T10:12:16.048Z,5.64
2022-11-22T10:17:26.271Z,5.68
2022-11-22T10:22:23.028Z,5.74
2022-11-22T10:27:15.469Z,5.79
2022-11-22T10:32:09.745Z,5.85
2022-11-22T10:37:05.734Z,5.94
2022-11-22T10:42:11.732Z,6.01
2022-11-22T10:47:14.760Z,6.06
2022-11-22T10:52:10.609Z,6.12
2022-11-22T10:57:07.294Z,6.13
2022-11-22T11:02:01.305Z,6.14
2022-11-22T11:07:13.268Z,6.16
2022-11-22T11:12:08.199Z,6.19
2022-11-22T11:16:59.334Z,6.25
2022-11-22T11:21:54.558Z,6.27
2022-11-22T11:26:55.361Z,6.30
2022-11-22T11:31:50.245Z,6.32
2022-11-22T11:36:42.726Z,6.34
2022-11-22T11:41:40.257Z,6.37
2022-11-22T11:46:49.589Z,6.43
2022-11-22T11:51:44.425Z,6.51
2022-11-22T11:56:43.625Z,6.57
2022-11-22T12:01:39.087Z,6.58
2022-11-22T12:06:34.275Z,6.59
2022-11-22T12:11:27.756Z,6.60
2022-11-22T12:16:24.995Z,6.60
2022-11-22T12:21:26.146Z,6.61
2022-11-22T12:26:17.577Z,6.64
2022-11-22T12:31:20.021Z,6.68
2022-11-22T12:36:17.387Z,6.74
2022-11-22T12:41:20.683Z,6.78
2022-11-22T12:46:17.175Z,6.85
2022-11-22T12:51:11.070Z,6.90
2022-11-22T12:56:03.724Z,6.93
2022-11-22T13:01:04.376Z,6.95
2022-11-22T13:05:58.419Z,6.99
2022-11-22T13:10:52.595Z,7.01
2022-11-22T13:15:45.801Z,7.02
2022-11-22T13:20:43.189Z,7.03
2022-11-22T13:25:40.771Z,7.02
2022-11-22T13:30:32.994Z,7.04
2022-11-22T13:35:28.097Z,7.07
2022-11-22T13:40:29.447Z,7.06
2022-11-22T13:45:26.674Z,7.07
2022-11-22T13:50:32.477Z,7.08
2022-11-22T13:55:40.354Z,7.08
2022-11-22T14:00:45.704Z,7.09
2022-11-22T14:05:41.884Z,7.08
2022-11-22T14:10:43.469Z,7.09
2022-11-22T14:15:49.507Z,7.06
2022-11-22T14:20:49.324Z,7.07
2022-11-22T14:25:52.957Z,7.05
2022-11-22T14:30:53.969Z,7.06
2022-11-22T14:36:12.031Z,7.04
2022-11-22T14:41:20.215Z,7.04
2022-11-22T14:46:45.340Z,7.06
2022-11-22T14:51:33.683Z,7.05
2022-11-22T14:56:30.350Z,7.06
2022-11-22T15:01:42.095Z,7.06
2022-11-22T15:09:16.118Z,7.06
2022-11-22T15:12:02.528Z,7.08
2022-11-22T15:59:13.117Z,7.04
2022-11-22T16:04:07.553Z,7.04
2022-11-22T16:09:09.628Z,7.04
2022-11-22T16:14:05.025Z,7.05
2022-11-22T16:18:58.933Z,7.03
2022-11-22T16:24:14.672Z,7.03
2022-11-22T16:29:23.282Z,7.03
2022-11-22T16:34:16.218Z,7.04
2022-11-22T16:39:11.239Z,7.05
2022-11-22T16:44:05.090Z,7.07
2022-11-22T16:49:04.366Z,7.09
2022-11-22T16:54:00.640Z,7.10
2022-11-22T16:58:53.568Z,7.11
2022-11-22T17:03:46.770Z,7.10
2022-11-22T17:08:40.253Z,7.12
2022-11-22T17:13:46.112Z,7.13
2022-11-22T17:18:37.630Z,7.14
2022-11-22T17:23:30.411Z,7.16
2022-11-22T17:28:23.450Z,7.17
2022-11-22T17:33:17.072Z,7.19
2022-11-22T17:38:07.642Z,7.23
2022-11-22T17:42:59.419Z,7.23
2022-11-22T17:47:56.260Z,7.28
2022-11-22T17:52:49.678Z,7.31
2022-11-22T17:57:49.476Z,7.36
2022-11-22T18:02:46.084Z,7.40
2022-11-22T18:07:42.191Z,7.38
2022-11-22T18:12:42.069Z,7.43
2022-11-22T18:17:34.647Z,7.44
2022-11-22T18:22:27.026Z,7.48
2022-11-22T18:27:22.350Z,7.49
2022-11-22T18:32:13.395Z,7.50
2022-11-22T18:37:07.874Z,7.55
2022-11-22T18:41:58.024Z,7.60
2022-11-22T18:46:52.700Z,7.62
2022-11-22T18:51:43.867Z,7.66
2022-11-22T18:56:38.656Z,7.62
2022-11-22T19:01:37.324Z,7.59
2022-11-22T19:06:37.411Z,7.61
2022-11-22T19:11:32.746Z,7.56
2022-11-22T19:16:31.610Z,7.57
2022-11-22T19:21:25.778Z,7.59
2022-11-22T19:26:26.984Z,7.61
2022-11-22T19:31:19.447Z,7.63
2022-11-22T19:36:20.473Z,7.64
2022-11-22T19:41:12.077Z,7.68
2022-11-22T19:46:06.094Z,7.72
2022-11-22T19:50:56.859Z,7.74
2022-11-22T19:55:50.803Z,7.70
2022-11-22T20:00:42.639Z,7.75
2022-11-22T20:05:45.718Z,7.73
2022-11-22T20:10:54.669Z,7.87
2022-11-22T20:15:51.946Z,7.86
2022-11-22T20:20:51.052Z,7.95
2022-11-22T20:25:46.752Z,7.98
2022-11-22T20:30:41.310Z,8.02
2022-11-22T20:35:34.946Z,7.93
2022-11-22T20:40:32.679Z,8.06
2022-11-22T20:45:38.518Z,8.14
2022-11-22T20:50:28.904Z,8.14
2022-11-22T20:55:21.960Z,8.21
2022-11-22T21:00:37.709Z,8.17
2022-11-22T21:05:30.215Z,8.21
2022-11-22T21:10:21.829Z,8.25
2022-11-22T21:15:24.258Z,8.24
2022-11-22T21:20:22.496Z,8.14
2022-11-22T21:25:18.874Z,8.23
2022-11-22T21:30:18.850Z,8.19
2022-11-22T21:35:11.920Z,8.20
2022-11-22T21:40:03.480Z,8.10
2022-11-22T21:44:58.961Z,8.14
2022-11-22T21:50:00.704Z,8.06
2022-11-22T21:54:55.167Z,8.11
2022-11-22T21:59:50.299Z,8.18
2022-11-22T22:04:44.748Z,8.19
2022-11-22T22:09:40.223Z,8.10
2022-11-22T22:14:34.521Z,8.15
2022-11-22T22:19:29.997Z,8.08
2022-11-22T22:24:22.909Z,8.02
2022-11-22T22:29:30.804Z,8.18
2022-11-22T22:34:25.419Z,8.09
2022-11-22T22:39:19.198Z,8.06
2022-11-22T22:44:13.320Z,8.20
2022-11-22T22:49:08.303Z,8.20
2022-11-22T22:54:02.289Z,8.18
2022-11-22T22:58:58.048Z,8.20
2022-11-22T23:03:53.707Z,8.23
2022-11-22T23:09:02.256Z,8.17
2022-11-22T23:13:54.505Z,8.26
2022-11-22T23:18:56.869Z,8.22
2022-11-22T23:23:51.469Z,8.21
2022-11-22T23:28:45.262Z,8.18
2022-11-22T23:33:36.406Z,8.14
2022-11-22T23:38:29.826Z,8.12
2022-11-22T23:43:23.907Z,7.98
2022-11-22T23:48:15.176Z,7.97
2022-11-22T23:53:06.170Z,7.99
2022-11-22T23:57:57.336Z,7.95
